Pekin Mall, Illinois
Current Conditions -  °F | °C
As of 5:54 AM on Monday 26 Jan 2015 (Local Time) from KPIA Reporting Station
Clear Clear  
Wind Chill: 12°   Ceiling: Unl
Heat Index: 20°   Visibility: 10mi
Dew Point: 14°   Wind: 6mph
Humidity: 78%   Direction: 310°NW
Pressure: 30"   Gusts: NA
Location:  40.5452°N, 89.6011°W
Report Text: KPIA 261154Z 31005KT 10SM CLR M07/M10 A3000 RMK AO2 SLP169 70016 T10671100 11050 21067 55006
Loading
Personal Weather Stations






























Interactive Weather Map New forecast layout! Learn more

10-Day Weather Forecast

Advertisements
Track Severe Weather on mobile